sensor_id;sensor_type;location;lat;lon;timestamp;temperature;humidity
47779;DHT22;33538;48.432;11.350;2023-03-02T00:01:08;2.20;97.00
47779;DHT22;33538;48.432;11.350;2023-03-02T00:03:36;2.20;96.80
47779;DHT22;33538;48.432;11.350;2023-03-02T00:06:05;2.20;97.00
47779;DHT22;33538;48.432;11.350;2023-03-02T00:08:34;2.20;96.90
47779;DHT22;33538;48.432;11.350;2023-03-02T00:11:01;2.20;96.30
47779;DHT22;33538;48.432;11.350;2023-03-02T00:13:29;2.20;97.00
47779;DHT22;33538;48.432;11.350;2023-03-02T00:15:56;2.10;97.10
47779;DHT22;33538;48.432;11.350;2023-03-02T00:18:23;2.20;96.20
47779;DHT22;33538;48.432;11.350;2023-03-02T00:20:49;2.10;96.60
47779;DHT22;33538;48.432;11.350;2023-03-02T00:23:16;2.10;97.20
47779;DHT22;33538;48.432;11.350;2023-03-02T00:25:44;2.20;97.20
47779;DHT22;33538;48.432;11.350;2023-03-02T00:28:12;2.10;97.20
47779;DHT22;33538;48.432;11.350;2023-03-02T00:30:39;2.10;96.90
47779;DHT22;33538;48.432;11.350;2023-03-02T00:33:06;2.10;97.10
47779;DHT22;33538;48.432;11.350;2023-03-02T00:35:36;2.10;97.40
47779;DHT22;33538;48.432;11.350;2023-03-02T00:38:03;2.10;97.20
47779;DHT22;33538;48.432;11.350;2023-03-02T00:40:29;2.10;97.10
47779;DHT22;33538;48.432;11.350;2023-03-02T00:42:57;2.10;97.70
47779;DHT22;33538;48.432;11.350;2023-03-02T00:45:24;2.10;96.90
47779;DHT22;33538;48.432;11.350;2023-03-02T00:47:51;2.20;97.10
47779;DHT22;33538;48.432;11.350;2023-03-02T00:50:18;2.20;96.50
47779;DHT22;33538;48.432;11.350;2023-03-02T00:52:45;2.10;97.10
47779;DHT22;33538;48.432;11.350;2023-03-02T00:55:11;2.10;96.80
47779;DHT22;33538;48.432;11.350;2023-03-02T00:57:38;2.10;96.60
47779;DHT22;33538;48.432;11.350;2023-03-02T01:00:08;2.10;97.10
47779;DHT22;33538;48.432;11.350;2023-03-02T01:02:35;2.00;96.90
47779;DHT22;33538;48.432;11.350;2023-03-02T01:05:03;2.00;97.30
47779;DHT22;33538;48.432;11.350;2023-03-02T01:07:30;2.00;97.40
47779;DHT22;33538;48.432;11.350;2023-03-02T01:09:56;2.00;97.50
47779;DHT22;33538;48.432;11.350;2023-03-02T01:12:23;2.00;97.90
47779;DHT22;33538;48.432;11.350;2023-03-02T01:14:50;2.00;97.60
47779;DHT22;33538;48.432;11.350;2023-03-02T01:17:18;2.00;97.30
47779;DHT22;33538;48.432;11.350;2023-03-02T01:19:45;2.00;97.30
47779;DHT22;33538;48.432;11.350;2023-03-02T01:22:12;2.00;97.00
47779;DHT22;33538;48.432;11.350;2023-03-02T01:24:38;2.00;97.10
47779;DHT22;33538;48.432;11.350;2023-03-02T01:27:05;2.00;97.30
47779;DHT22;33538;48.432;11.350;2023-03-02T01:29:32;2.00;97.10
47779;DHT22;33538;48.432;11.350;2023-03-02T01:31:59;2.00;97.40
47779;DHT22;33538;48.432;11.350;2023-03-02T01:34:27;2.00;97.90
47779;DHT22;33538;48.432;11.350;2023-03-02T01:36:54;2.00;96.80
47779;DHT22;33538;48.432;11.350;2023-03-02T01:39:21;2.00;97.80
47779;DHT22;33538;48.432;11.350;2023-03-02T01:41:49;1.90;98.10
47779;DHT22;33538;48.432;11.350;2023-03-02T01:44:34;2.00;97.80
47779;DHT22;33538;48.432;11.350;2023-03-02T01:47:02;2.00;97.10
47779;DHT22;33538;48.432;11.350;2023-03-02T01:49:31;2.00;97.00
47779;DHT22;33538;48.432;11.350;2023-03-02T01:52:01;2.00;96.80
47779;DHT22;33538;48.432;11.350;2023-03-02T01:54:28;2.00;97.50
47779;DHT22;33538;48.432;11.350;2023-03-02T01:56:58;2.00;97.40
47779;DHT22;33538;48.432;11.350;2023-03-02T01:59:26;2.00;97.50
47779;DHT22;33538;48.432;11.350;2023-03-02T02:01:57;2.00;97.40
47779;DHT22;33538;48.432;11.350;2023-03-02T02:04:26;2.00;97.90
47779;DHT22;33538;48.432;11.350;2023-03-02T02:06:58;2.00;97.80
47779;DHT22;33538;48.432;11.350;2023-03-02T02:09:27;2.00;97.60
47779;DHT22;33538;48.432;11.350;2023-03-02T02:11:55;2.00;97.30
47779;DHT22;33538;48.432;11.350;2023-03-02T02:14:22;2.00;97.10
47779;DHT22;33538;48.432;11.350;2023-03-02T02:16:50;2.00;97.60
47779;DHT22;33538;48.432;11.350;2023-03-02T02:19:29;1.90;98.10
47779;DHT22;33538;48.432;11.350;2023-03-02T02:21:59;2.00;97.90
47779;DHT22;33538;48.432;11.350;2023-03-02T02:24:29;1.90;97.70
47779;DHT22;33538;48.432;11.350;2023-03-02T02:26:59;1.90;97.70
47779;DHT22;33538;48.432;11.350;2023-03-02T02:29:29;1.90;98.00
47779;DHT22;33538;48.432;11.350;2023-03-02T02:32:00;1.90;98.80
47779;DHT22;33538;48.432;11.350;2023-03-02T02:34:30;1.90;98.70
47779;DHT22;33538;48.432;11.350;2023-03-02T02:37:02;1.90;98.60
47779;DHT22;33538;48.432;11.350;2023-03-02T02:39:34;1.90;98.60
47779;DHT22;33538;48.432;11.350;2023-03-02T02:42:06;1.90;98.70
47779;DHT22;33538;48.432;11.350;2023-03-02T02:44:33;1.90;98.80
47779;DHT22;33538;48.432;11.350;2023-03-02T02:47:00;1.90;98.60
47779;DHT22;33538;48.432;11.350;2023-03-02T02:49:30;1.90;98.20
47779;DHT22;33538;48.432;11.350;2023-03-02T02:51:57;1.90;98.00
47779;DHT22;33538;48.432;11.350;2023-03-02T02:54:25;1.90;99.00
47779;DHT22;33538;48.432;11.350;2023-03-02T02:56:53;1.90;98.70
47779;DHT22;33538;48.432;11.350;2023-03-02T02:59:23;1.90;98.30
47779;DHT22;33538;48.432;11.350;2023-03-02T03:01:51;1.90;98.90
47779;DHT22;33538;48.432;11.350;2023-03-02T03:04:20;1.90;98.80
47779;DHT22;33538;48.432;11.350;2023-03-02T03:06:52;1.90;99.30
47779;DHT22;33538;48.432;11.350;2023-03-02T03:09:20;1.90;99.40
47779;DHT22;33538;48.432;11.350;2023-03-02T03:11:48;1.80;99.10
47779;DHT22;33538;48.432;11.350;2023-03-02T03:14:17;1.80;99.70
47779;DHT22;33538;48.432;11.350;2023-03-02T03:16:47;1.80;99.90
47779;DHT22;33538;48.432;11.350;2023-03-02T03:19:18;1.80;99.90
47779;DHT22;33538;48.432;11.350;2023-03-02T03:21:47;1.80;99.70
47779;DHT22;33538;48.432;11.350;2023-03-02T03:24:15;1.80;99.30
47779;DHT22;33538;48.432;11.350;2023-03-02T03:26:42;1.70;99.50
47779;DHT22;33538;48.432;11.350;2023-03-02T03:29:09;1.70;99.70
47779;DHT22;33538;48.432;11.350;2023-03-02T03:31:36;1.70;99.90
47779;DHT22;33538;48.432;11.350;2023-03-02T03:34:04;1.70;99.90
47779;DHT22;33538;48.432;11.350;2023-03-02T03:36:32;1.60;99.70
47779;DHT22;33538;48.432;11.350;2023-03-02T03:39:00;1.70;99.30
47779;DHT22;33538;48.432;11.350;2023-03-02T03:41:27;1.70;99.10
47779;DHT22;33538;48.432;11.350;2023-03-02T03:43:54;1.70;98.50
47779;DHT22;33538;48.432;11.350;2023-03-02T03:46:22;1.70;98.90
47779;DHT22;33538;48.432;11.350;2023-03-02T03:48:49;1.60;98.70
47779;DHT22;33538;48.432;11.350;2023-03-02T03:51:17;1.70;99.00
47779;DHT22;33538;48.432;11.350;2023-03-02T03:53:44;1.60;98.70
47779;DHT22;33538;48.432;11.350;2023-03-02T03:56:11;1.60;99.00
47779;DHT22;33538;48.432;11.350;2023-03-02T03:58:38;1.60;98.80
47779;DHT22;33538;48.432;11.350;2023-03-02T04:01:05;1.50;99.20
47779;DHT22;33538;48.432;11.350;2023-03-02T04:03:32;1.50;99.30
47779;DHT22;33538;48.432;11.350;2023-03-02T04:05:58;1.50;99.40
47779;DHT22;33538;48.432;11.350;2023-03-02T04:08:27;1.50;99.50
47779;DHT22;33538;48.432;11.350;2023-03-02T04:10:53;1.40;99.70
47779;DHT22;33538;48.432;11.350;2023-03-02T04:13:20;1.50;99.90
47779;DHT22;33538;48.432;11.350;2023-03-02T04:15:47;1.40;99.90
47779;DHT22;33538;48.432;11.350;2023-03-02T04:18:14;1.50;99.80
47779;DHT22;33538;48.432;11.350;2023-03-02T04:20:40;1.40;99.40
47779;DHT22;33538;48.432;11.350;2023-03-02T04:23:07;1.40;99.60
47779;DHT22;33538;48.432;11.350;2023-03-02T04:25:35;1.50;99.00
47779;DHT22;33538;48.432;11.350;2023-03-02T04:28:02;1.40;99.30
47779;DHT22;33538;48.432;11.350;2023-03-02T04:30:29;1.40;98.70
47779;DHT22;33538;48.432;11.350;2023-03-02T04:32:56;1.40;99.20
47779;DHT22;33538;48.432;11.350;2023-03-02T04:35:23;1.40;98.90
47779;DHT22;33538;48.432;11.350;2023-03-02T04:37:50;1.40;98.60
47779;DHT22;33538;48.432;11.350;2023-03-02T04:40:16;1.40;98.20
47779;DHT22;33538;48.432;11.350;2023-03-02T04:42:45;1.40;97.70
47779;DHT22;33538;48.432;11.350;2023-03-02T04:45:12;1.30;97.80
47779;DHT22;33538;48.432;11.350;2023-03-02T04:47:39;1.40;97.70
47779;DHT22;33538;48.432;11.350;2023-03-02T04:50:07;1.40;98.10
47779;DHT22;33538;48.432;11.350;2023-03-02T04:52:34;1.40;98.30
47779;DHT22;33538;48.432;11.350;2023-03-02T04:55:02;1.40;98.10
47779;DHT22;33538;48.432;11.350;2023-03-02T04:57:29;1.40;98.40
47779;DHT22;33538;48.432;11.350;2023-03-02T04:59:57;1.40;98.60
47779;DHT22;33538;48.432;11.350;2023-03-02T05:02:24;1.40;98.80
47779;DHT22;33538;48.432;11.350;2023-03-02T05:04:51;1.40;98.90
47779;DHT22;33538;48.432;11.350;2023-03-02T05:07:18;1.40;98.70
47779;DHT22;33538;48.432;11.350;2023-03-02T05:09:44;1.40;99.00
47779;DHT22;33538;48.432;11.350;2023-03-02T05:12:11;1.30;98.90
47779;DHT22;33538;48.432;11.350;2023-03-02T05:14:38;1.40;98.80
47779;DHT22;33538;48.432;11.350;2023-03-02T05:17:06;1.40;98.20
47779;DHT22;33538;48.432;11.350;2023-03-02T05:19:33;1.40;98.30
47779;DHT22;33538;48.432;11.350;2023-03-02T05:21:59;1.30;98.60
47779;DHT22;33538;48.432;11.350;2023-03-02T05:24:26;1.30;98.70
47779;DHT22;33538;48.432;11.350;2023-03-02T05:26:53;1.30;99.00
47779;DHT22;33538;48.432;11.350;2023-03-02T05:29:20;1.20;99.90
47779;DHT22;33538;48.432;11.350;2023-03-02T05:31:47;1.20;99.90
47779;DHT22;33538;48.432;11.350;2023-03-02T05:34:16;1.20;99.90
47779;DHT22;33538;48.432;11.350;2023-03-02T05:36:43;1.20;99.90
47779;DHT22;33538;48.432;11.350;2023-03-02T05:39:11;1.20;99.90
47779;DHT22;33538;48.432;11.350;2023-03-02T05:41:38;1.20;99.90
47779;DHT22;33538;48.432;11.350;2023-03-02T05:44:06;1.30;99.90
47779;DHT22;33538;48.432;11.350;2023-03-02T05:46:33;1.30;99.60
47779;DHT22;33538;48.432;11.350;2023-03-02T05:49:00;1.20;99.30
47779;DHT22;33538;48.432;11.350;2023-03-02T05:51:29;1.20;99.00
47779;DHT22;33538;48.432;11.350;2023-03-02T05:53:55;1.20;98.80
47779;DHT22;33538;48.432;11.350;2023-03-02T05:56:22;1.20;99.00
47779;DHT22;33538;48.432;11.350;2023-03-02T05:58:49;1.30;98.80
47779;DHT22;33538;48.432;11.350;2023-03-02T06:01:16;1.20;98.90
47779;DHT22;33538;48.432;11.350;2023-03-02T06:03:42;1.20;99.00
47779;DHT22;33538;48.432;11.350;2023-03-02T06:06:09;1.20;99.30
47779;DHT22;33538;48.432;11.350;2023-03-02T06:08:38;1.20;99.80
47779;DHT22;33538;48.432;11.350;2023-03-02T06:11:05;1.20;99.40
47779;DHT22;33538;48.432;11.350;2023-03-02T06:13:31;1.00;99.90
47779;DHT22;33538;48.432;11.350;2023-03-02T06:15:58;1.00;99.90
47779;DHT22;33538;48.432;11.350;2023-03-02T06:18:25;1.00;99.90
47779;DHT22;33538;48.432;11.350;2023-03-02T06:20:52;1.10;99.90
47779;DHT22;33538;48.432;11.350;2023-03-02T06:23:18;1.10;99.90
47779;DHT22;33538;48.432;11.350;2023-03-02T06:25:46;1.00;99.90
47779;DHT22;33538;48.432;11.350;2023-03-02T06:28:14;1.00;99.90
47779;DHT22;33538;48.432;11.350;2023-03-02T06:30:40;1.10;99.90
47779;DHT22;33538;48.432;11.350;2023-03-02T06:33:07;1.10;99.90
47779;DHT22;33538;48.432;11.350;2023-03-02T06:35:34;1.10;99.90
47779;DHT22;33538;48.432;11.350;2023-03-02T06:38:01;1.20;99.90
47779;DHT22;33538;48.432;11.350;2023-03-02T06:40:28;1.20;99.90
47779;DHT22;33538;48.432;11.350;2023-03-02T06:42:56;1.20;99.30
47779;DHT22;33538;48.432;11.350;2023-03-02T06:45:23;1.20;98.90
47779;DHT22;33538;48.432;11.350;2023-03-02T06:47:50;1.20;99.00
47779;DHT22;33538;48.432;11.350;2023-03-02T06:50:16;1.30;98.90
47779;DHT22;33538;48.432;11.350;2023-03-02T06:52:43;1.20;99.90
47779;DHT22;33538;48.432;11.350;2023-03-02T06:55:10;1.20;99.90
47779;DHT22;33538;48.432;11.350;2023-03-02T06:57:37;1.20;99.90
47779;DHT22;33538;48.432;11.350;2023-03-02T07:00:07;1.30;99.90
47779;DHT22;33538;48.432;11.350;2023-03-02T07:02:35;1.30;99.90
47779;DHT22;33538;48.432;11.350;2023-03-02T07:05:02;1.30;99.90
47779;DHT22;33538;48.432;11.350;2023-03-02T07:07:29;1.30;99.90
47779;DHT22;33538;48.432;11.350;2023-03-02T07:09:56;1.40;99.90
47779;DHT22;33538;48.432;11.350;2023-03-02T07:12:23;1.40;99.90
47779;DHT22;33538;48.432;11.350;2023-03-02T07:14:50;1.40;99.90
47779;DHT22;33538;48.432;11.350;2023-03-02T07:17:18;1.40;99.90
47779;DHT22;33538;48.432;11.350;2023-03-02T07:19:44;1.50;99.90
47779;DHT22;33538;48.432;11.350;2023-03-02T07:22:11;1.50;99.60
47779;DHT22;33538;48.432;11.350;2023-03-02T07:24:38;1.50;99.90
47779;DHT22;33538;48.432;11.350;2023-03-02T07:27:05;1.60;99.90
47779;DHT22;33538;48.432;11.350;2023-03-02T07:29:32;1.60;99.60
47779;DHT22;33538;48.432;11.350;2023-03-02T07:31:58;1.70;97.70
47779;DHT22;33538;48.432;11.350;2023-03-02T07:34:27;1.70;96.90
47779;DHT22;33538;48.432;11.350;2023-03-02T07:36:53;1.80;95.60
47779;DHT22;33538;48.432;11.350;2023-03-02T07:39:20;1.80;95.00
47779;DHT22;33538;48.432;11.350;2023-03-02T07:41:47;1.80;94.40
47779;DHT22;33538;48.432;11.350;2023-03-02T07:44:14;1.90;94.10
47779;DHT22;33538;48.432;11.350;2023-03-02T07:46:40;1.90;93.90
47779;DHT22;33538;48.432;11.350;2023-03-02T07:49:07;1.90;93.60
47779;DHT22;33538;48.432;11.350;2023-03-02T07:51:35;1.90;93.60
47779;DHT22;33538;48.432;11.350;2023-03-02T07:54:02;2.00;93.50
47779;DHT22;33538;48.432;11.350;2023-03-02T07:56:29;2.00;93.40
47779;DHT22;33538;48.432;11.350;2023-03-02T07:58:56;2.00;93.30
47779;DHT22;33538;48.432;11.350;2023-03-02T08:01:23;2.00;93.50
47779;DHT22;33538;48.432;11.350;2023-03-02T08:03:50;2.10;93.40
47779;DHT22;33538;48.432;11.350;2023-03-02T08:06:16;2.10;93.50
47779;DHT22;33538;48.432;11.350;2023-03-02T08:08:44;2.10;93.50
47779;DHT22;33538;48.432;11.350;2023-03-02T08:11:13;2.10;93.40
47779;DHT22;33538;48.432;11.350;2023-03-02T08:13:41;2.20;93.50
47779;DHT22;33538;48.432;11.350;2023-03-02T08:16:09;2.20;93.40
47779;DHT22;33538;48.432;11.350;2023-03-02T08:18:37;2.20;94.00
47779;DHT22;33538;48.432;11.350;2023-03-02T08:21:09;2.20;94.00
47779;DHT22;33538;48.432;11.350;2023-03-02T08:23:36;2.20;94.30
47779;DHT22;33538;48.432;11.350;2023-03-02T08:26:04;2.30;94.70
47779;DHT22;33538;48.432;11.350;2023-03-02T08:28:31;2.30;94.80
47779;DHT22;33538;48.432;11.350;2023-03-02T08:31:00;2.30;95.40
47779;DHT22;33538;48.432;11.350;2023-03-02T08:33:28;2.40;95.90
47779;DHT22;33538;48.432;11.350;2023-03-02T08:35:55;2.30;95.80
47779;DHT22;33538;48.432;11.350;2023-03-02T08:38:23;2.40;95.80
47779;DHT22;33538;48.432;11.350;2023-03-02T08:40:50;2.40;96.00
47779;DHT22;33538;48.432;11.350;2023-03-02T08:43:19;2.40;96.40
47779;DHT22;33538;48.432;11.350;2023-03-02T08:45:49;2.50;96.40
47779;DHT22;33538;48.432;11.350;2023-03-02T08:48:16;2.50;97.10
47779;DHT22;33538;48.432;11.350;2023-03-02T08:50:43;2.50;96.50
47779;DHT22;33538;48.432;11.350;2023-03-02T08:53:10;2.60;97.00
47779;DHT22;33538;48.432;11.350;2023-03-02T08:55:37;2.60;97.20
47779;DHT22;33538;48.432;11.350;2023-03-02T08:58:03;2.60;97.20
47779;DHT22;33538;48.432;11.350;2023-03-02T09:00:31;2.60;97.50
47779;DHT22;33538;48.432;11.350;2023-03-02T09:02:58;2.70;97.50
47779;DHT22;33538;48.432;11.350;2023-03-02T09:05:25;2.70;98.00
47779;DHT22;33538;48.432;11.350;2023-03-02T09:07:51;2.70;97.90
47779;DHT22;33538;48.432;11.350;2023-03-02T09:10:18;2.70;97.90
47779;DHT22;33538;48.432;11.350;2023-03-02T09:12:45;2.70;98.10
47779;DHT22;33538;48.432;11.350;2023-03-02T09:15:12;2.70;98.20
47779;DHT22;33538;48.432;11.350;2023-03-02T09:17:40;2.80;98.60
47779;DHT22;33538;48.432;11.350;2023-03-02T09:20:08;2.80;98.70
47779;DHT22;33538;48.432;11.350;2023-03-02T09:22:35;2.80;98.30
47779;DHT22;33538;48.432;11.350;2023-03-02T09:25:02;2.80;98.50
47779;DHT22;33538;48.432;11.350;2023-03-02T09:27:28;2.90;98.70
47779;DHT22;33538;48.432;11.350;2023-03-02T09:29:55;2.90;98.50
47779;DHT22;33538;48.432;11.350;2023-03-02T09:32:22;2.90;98.50
47779;DHT22;33538;48.432;11.350;2023-03-02T09:34:50;2.90;98.90
47779;DHT22;33538;48.432;11.350;2023-03-02T09:37:17;3.00;99.90
47779;DHT22;33538;48.432;11.350;2023-03-02T09:39:44;3.00;99.40
47779;DHT22;33538;48.432;11.350;2023-03-02T09:42:24;3.00;99.00
47779;DHT22;33538;48.432;11.350;2023-03-02T09:45:14;3.10;99.40
47779;DHT22;33538;48.432;11.350;2023-03-02T09:47:49;3.10;99.30
47779;DHT22;33538;48.432;11.350;2023-03-02T09:50:27;3.10;99.50
47779;DHT22;33538;48.432;11.350;2023-03-02T09:56:07;3.10;99.70
47779;DHT22;33538;48.432;11.350;2023-03-02T09:58:36;3.20;99.90
47779;DHT22;33538;48.432;11.350;2023-03-02T10:01:11;3.20;99.90
47779;DHT22;33538;48.432;11.350;2023-03-02T10:03:48;3.20;99.90
47779;DHT22;33538;48.432;11.350;2023-03-02T10:06:17;3.20;99.90
47779;DHT22;33538;48.432;11.350;2023-03-02T10:08:44;3.30;99.90
47779;DHT22;33538;48.432;11.350;2023-03-02T10:11:17;3.30;99.90
47779;DHT22;33538;48.432;11.350;2023-03-02T10:13:48;3.30;99.90
47779;DHT22;33538;48.432;11.350;2023-03-02T10:16:25;3.40;99.90
47779;DHT22;33538;48.432;11.350;2023-03-02T10:19:02;3.40;99.90
47779;DHT22;33538;48.432;11.350;2023-03-02T10:21:37;3.40;99.90
47779;DHT22;33538;48.432;11.350;2023-03-02T10:24:14;3.40;99.90
47779;DHT22;33538;48.432;11.350;2023-03-02T10:26:46;3.50;99.90
47779;DHT22;33538;48.432;11.350;2023-03-02T10:29:27;3.50;99.90
47779;DHT22;33538;48.432;11.350;2023-03-02T10:31:59;3.50;99.90
47779;DHT22;33538;48.432;11.350;2023-03-02T10:34:29;3.50;99.90
47779;DHT22;33538;48.432;11.350;2023-03-02T10:36:57;3.50;99.90
47779;DHT22;33538;48.432;11.350;2023-03-02T10:39:24;3.60;99.90
47779;DHT22;33538;48.432;11.350;2023-03-02T10:41:55;3.60;99.90
47779;DHT22;33538;48.432;11.350;2023-03-02T10:44:27;3.60;99.90
47779;DHT22;33538;48.432;11.350;2023-03-02T10:46:55;3.60;99.90
47779;DHT22;33538;48.432;11.350;2023-03-02T10:49:27;3.70;99.90
47779;DHT22;33538;48.432;11.350;2023-03-02T10:52:03;3.70;99.90
47779;DHT22;33538;48.432;11.350;2023-03-02T10:54:34;3.70;99.90
47779;DHT22;33538;48.432;11.350;2023-03-02T10:57:02;3.80;99.90
47779;DHT22;33538;48.432;11.350;2023-03-02T10:59:41;3.80;99.90
47779;DHT22;33538;48.432;11.350;2023-03-02T11:02:15;3.80;99.90
47779;DHT22;33538;48.432;11.350;2023-03-02T11:04:42;3.80;99.90
47779;DHT22;33538;48.432;11.350;2023-03-02T11:07:14;3.80;99.90
47779;DHT22;33538;48.432;11.350;2023-03-02T11:09:41;3.80;99.90
47779;DHT22;33538;48.432;11.350;2023-03-02T11:12:14;3.90;99.90
47779;DHT22;33538;48.432;11.350;2023-03-02T11:14:41;3.90;99.90
47779;DHT22;33538;48.432;11.350;2023-03-02T11:17:28;4.00;99.90
47779;DHT22;33538;48.432;11.350;2023-03-02T11:19:56;4.00;99.90
47779;DHT22;33538;48.432;11.350;2023-03-02T11:22:32;4.00;99.90
47779;DHT22;33538;48.432;11.350;2023-03-02T11:25:04;4.00;99.90
47779;DHT22;33538;48.432;11.350;2023-03-02T11:27:35;4.00;99.90
47779;DHT22;33538;48.432;11.350;2023-03-02T11:30:10;4.10;99.90
47779;DHT22;33538;48.432;11.350;2023-03-02T11:32:39;4.10;99.90
47779;DHT22;33538;48.432;11.350;2023-03-02T11:35:11;4.10;99.90
47779;DHT22;33538;48.432;11.350;2023-03-02T11:37:45;4.20;99.90
47779;DHT22;33538;48.432;11.350;2023-03-02T11:40:20;4.20;99.90
47779;DHT22;33538;48.432;11.350;2023-03-02T11:42:48;4.20;99.90
47779;DHT22;33538;48.432;11.350;2023-03-02T11:45:18;4.20;99.90
47779;DHT22;33538;48.432;11.350;2023-03-02T11:47:50;4.20;99.90
47779;DHT22;33538;48.432;11.350;2023-03-02T11:50:29;4.30;99.90
47779;DHT22;33538;48.432;11.350;2023-03-02T11:52:59;4.30;99.90
47779;DHT22;33538;48.432;11.350;2023-03-02T11:55:28;4.40;99.90
47779;DHT22;33538;48.432;11.350;2023-03-02T11:57:58;4.40;99.90
47779;DHT22;33538;48.432;11.350;2023-03-02T12:00:31;4.40;99.90
47779;DHT22;33538;48.432;11.350;2023-03-02T12:03:00;4.40;99.90
47779;DHT22;33538;48.432;11.350;2023-03-02T12:05:29;4.40;99.90
47779;DHT22;33538;48.432;11.350;2023-03-02T12:07:59;4.50;99.90
47779;DHT22;33538;48.432;11.350;2023-03-02T12:10:32;4.50;99.90
47779;DHT22;33538;48.432;11.350;2023-03-02T12:13:06;4.50;99.90
47779;DHT22;33538;48.432;11.350;2023-03-02T12:15:39;4.50;99.90
47779;DHT22;33538;48.432;11.350;2023-03-02T12:21:18;4.50;99.90
47779;DHT22;33538;48.432;11.350;2023-03-02T12:24:00;4.60;99.90
47779;DHT22;33538;48.432;11.350;2023-03-02T12:26:30;4.60;99.90
47779;DHT22;33538;48.432;11.350;2023-03-02T12:29:01;4.60;99.90
47779;DHT22;33538;48.432;11.350;2023-03-02T12:31:43;4.60;99.90
47779;DHT22;33538;48.432;11.350;2023-03-02T12:34:26;4.70;99.90
47779;DHT22;33538;48.432;11.350;2023-03-02T12:36:59;4.70;99.90
47779;DHT22;33538;48.432;11.350;2023-03-02T12:39:40;4.70;99.90
47779;DHT22;33538;48.432;11.350;2023-03-02T12:42:32;4.70;99.90
47779;DHT22;33538;48.432;11.350;2023-03-02T12:45:06;4.80;99.90
47779;DHT22;33538;48.432;11.350;2023-03-02T12:47:37;4.80;99.90
47779;DHT22;33538;48.432;11.350;2023-03-02T12:50:16;4.80;99.90
47779;DHT22;33538;48.432;11.350;2023-03-02T12:52:43;4.80;99.90
47779;DHT22;33538;48.432;11.350;2023-03-02T12:55:18;4.80;99.90
47779;DHT22;33538;48.432;11.350;2023-03-02T12:57:49;4.90;99.90
47779;DHT22;33538;48.432;11.350;2023-03-02T13:00:18;4.90;99.90
47779;DHT22;33538;48.432;11.350;2023-03-02T13:02:48;4.90;99.90
47779;DHT22;33538;48.432;11.350;2023-03-02T13:05:19;4.90;99.90
47779;DHT22;33538;48.432;11.350;2023-03-02T13:07:54;4.90;99.90
47779;DHT22;33538;48.432;11.350;2023-03-02T13:10:27;4.90;99.90
47779;DHT22;33538;48.432;11.350;2023-03-02T13:12:56;4.90;99.90
47779;DHT22;33538;48.432;11.350;2023-03-02T13:15:23;5.00;99.90
47779;DHT22;33538;48.432;11.350;2023-03-02T13:17:54;5.00;99.90
47779;DHT22;33538;48.432;11.350;2023-03-02T13:20:23;5.00;99.90
47779;DHT22;33538;48.432;11.350;2023-03-02T13:22:50;5.10;99.90
47779;DHT22;33538;48.432;11.350;2023-03-02T13:25:26;5.10;99.90
47779;DHT22;33538;48.432;11.350;2023-03-02T13:27:55;5.10;99.90
47779;DHT22;33538;48.432;11.350;2023-03-02T13:30:25;5.10;99.90
47779;DHT22;33538;48.432;11.350;2023-03-02T13:32:56;5.10;99.90
47779;DHT22;33538;48.432;11.350;2023-03-02T13:35:25;5.10;99.90
47779;DHT22;33538;48.432;11.350;2023-03-02T13:37:55;5.10;99.90
47779;DHT22;33538;48.432;11.350;2023-03-02T13:40:40;5.10;99.90
47779;DHT22;33538;48.432;11.350;2023-03-02T13:43:35;5.20;99.90
47779;DHT22;33538;48.432;11.350;2023-03-02T13:46:04;5.20;99.90
47779;DHT22;33538;48.432;11.350;2023-03-02T13:48:31;5.20;99.90
47779;DHT22;33538;48.432;11.350;2023-03-02T13:51:00;5.20;99.90
47779;DHT22;33538;48.432;11.350;2023-03-02T13:53:29;5.20;99.90
47779;DHT22;33538;48.432;11.350;2023-03-02T13:55:58;5.20;99.90
47779;DHT22;33538;48.432;11.350;2023-03-02T13:58:26;5.20;99.90
47779;DHT22;33538;48.432;11.350;2023-03-02T14:00:53;5.20;99.90
47779;DHT22;33538;48.432;11.350;2023-03-02T14:03:23;5.30;99.90
47779;DHT22;33538;48.432;11.350;2023-03-02T14:05:50;5.30;99.90
47779;DHT22;33538;48.432;11.350;2023-03-02T14:08:17;5.30;99.90
47779;DHT22;33538;48.432;11.350;2023-03-02T14:10:44;5.30;99.90
47779;DHT22;33538;48.432;11.350;2023-03-02T14:13:15;5.30;99.90
47779;DHT22;33538;48.432;11.350;2023-03-02T14:15:47;5.30;99.90
47779;DHT22;33538;48.432;11.350;2023-03-02T14:18:27;5.30;99.90
47779;DHT22;33538;48.432;11.350;2023-03-02T14:20:55;5.30;99.90
47779;DHT22;33538;48.432;11.350;2023-03-02T14:23:46;5.30;99.90
47779;DHT22;33538;48.432;11.350;2023-03-02T14:26:38;5.30;99.90
47779;DHT22;33538;48.432;11.350;2023-03-02T14:29:32;5.30;99.90
47779;DHT22;33538;48.432;11.350;2023-03-02T14:32:23;5.30;99.90
47779;DHT22;33538;48.432;11.350;2023-03-02T14:42:14;5.40;99.90
47779;DHT22;33538;48.432;11.350;2023-03-02T14:44:44;5.40;99.90
47779;DHT22;33538;48.432;11.350;2023-03-02T14:47:11;5.40;99.90
47779;DHT22;33538;48.432;11.350;2023-03-02T14:49:38;5.50;99.90
47779;DHT22;33538;48.432;11.350;2023-03-02T14:52:07;5.50;99.90
47779;DHT22;33538;48.432;11.350;2023-03-02T14:54:39;5.50;99.90
47779;DHT22;33538;48.432;11.350;2023-03-02T14:57:14;5.50;99.90
47779;DHT22;33538;48.432;11.350;2023-03-02T14:59:43;5.50;99.90
47779;DHT22;33538;48.432;11.350;2023-03-02T15:02:11;5.50;99.90
47779;DHT22;33538;48.432;11.350;2023-03-02T15:04:51;5.60;99.90
47779;DHT22;33538;48.432;11.350;2023-03-02T15:07:20;5.50;99.90
47779;DHT22;33538;48.432;11.350;2023-03-02T15:09:47;5.60;99.90
47779;DHT22;33538;48.432;11.350;2023-03-02T15:12:14;5.60;99.90
47779;DHT22;33538;48.432;11.350;2023-03-02T15:14:42;5.60;99.90
47779;DHT22;33538;48.432;11.350;2023-03-02T15:17:09;5.60;99.90
47779;DHT22;33538;48.432;11.350;2023-03-02T15:19:36;5.60;99.90
47779;DHT22;33538;48.432;11.350;2023-03-02T15:22:03;5.70;99.90
47779;DHT22;33538;48.432;11.350;2023-03-02T15:24:30;5.70;99.90
47779;DHT22;33538;48.432;11.350;2023-03-02T15:27:00;5.70;99.90
47779;DHT22;33538;48.432;11.350;2023-03-02T15:29:27;5.70;99.90
47779;DHT22;33538;48.432;11.350;2023-03-02T15:31:55;5.70;99.90
47779;DHT22;33538;48.432;11.350;2023-03-02T15:34:22;5.70;99.90
47779;DHT22;33538;48.432;11.350;2023-03-02T15:36:48;5.70;99.90
47779;DHT22;33538;48.432;11.350;2023-03-02T15:39:15;5.70;99.90
47779;DHT22;33538;48.432;11.350;2023-03-02T15:41:42;5.70;99.90
47779;DHT22;33538;48.432;11.350;2023-03-02T15:44:15;5.80;99.90
47779;DHT22;33538;48.432;11.350;2023-03-02T15:46:42;5.80;99.90
47779;DHT22;33538;48.432;11.350;2023-03-02T15:49:11;5.70;99.90
47779;DHT22;33538;48.432;11.350;2023-03-02T15:51:38;5.80;99.90
47779;DHT22;33538;48.432;11.350;2023-03-02T15:54:04;5.80;99.90
47779;DHT22;33538;48.432;11.350;2023-03-02T15:56:31;5.80;99.90